Time;durP1;ratioP1;P1;durP2;ratioP2;P2;SDS_P1;SDS_P2;PMS_P1;PMS_P2;Temp;Humidity;BMP_temperature;BMP_pressure;BME280_temperature;BME280_humidity;BME280_pressure;Samples;Min_cycle;Max_cycle;Signal;HPM_P1;HPM_P2
2021/03/04 00:00:23;;;;;;;101.20;41.08;;;;;;;6.60;72.90;102436.75;4961110;28;20082;-74
2021/03/04 00:02:49;;;;;;;115.10;43.05;;;;;;;6.62;73.29;102433.16;4954793;28;20055;-75
2021/03/04 00:05:16;;;;;;;106.32;43.33;;;;;;;6.52;72.50;102414.53;4956671;28;20061;-73
2021/03/04 00:07:42;;;;;;;111.38;43.28;;;;;;;6.63;72.55;102421.81;4956870;28;20070;-74
2021/03/04 00:10:12;;;;;;;102.78;42.00;;;;;;;6.58;72.23;102402.94;4956976;28;20121;-74
2021/03/04 00:12:38;;;;;;;103.68;41.47;;;;;;;6.64;72.25;102410.44;4961223;28;20137;-74
2021/03/04 00:15:06;;;;;;;104.22;41.88;;;;;;;6.64;72.84;102418.25;4939169;28;20399;-74
2021/03/04 00:17:43;;;;;;;104.45;40.75;;;;;;;6.61;72.51;102412.41;4963115;28;20059;-74
2021/03/04 00:20:11;;;;;;;101.18;42.50;;;;;;;6.62;72.01;102433.16;4939761;28;20059;-74
2021/03/04 00:22:37;;;;;;;;;;;;;;;6.58;72.33;102441.22;4949219;28;20435;-74
2021/03/04 00:25:04;;;;;;;104.30;42.00;;;;;;;6.41;72.78;102426.44;4943716;28;19933;-74
2021/03/04 00:27:31;;;;;;;116.05;42.55;;;;;;;6.43;72.55;102437.63;4942050;28;20149;-74
2021/03/04 00:29:57;;;;;;;103.78;43.60;;;;;;;6.38;73.26;102437.88;4932586;28;20063;-74
2021/03/04 00:32:24;;;;;;;108.70;42.90;;;;;;;6.31;73.71;102442.59;4963271;28;20218;-73
2021/03/04 00:34:50;;;;;;;107.20;43.33;;;;;;;6.26;73.28;102435.91;4963861;28;20077;-73
2021/03/04 00:37:16;;;;;;;102.85;43.50;;;;;;;6.21;73.85;102433.53;4955111;28;20780;-73
2021/03/04 00:39:42;;;;;;;115.35;45.92;;;;;;;6.22;73.93;102417.00;4955655;28;20062;-73
2021/03/04 00:42:09;;;;;;;108.65;42.28;;;;;;;6.30;73.08;102420.03;4952372;28;20090;-73
2021/03/04 00:44:36;;;;;;;103.35;40.00;;;;;;;6.29;73.83;102418.38;4963281;28;20094;-73
2021/03/04 00:47:02;;;;;;;101.38;41.65;;;;;;;6.32;73.46;102402.56;4961826;28;20200;-73
2021/03/04 00:49:29;;;;;;;99.32;40.33;;;;;;;6.36;72.89;102394.59;4953530;28;20518;-73
2021/03/04 00:51:55;;;;;;;107.65;41.53;;;;;;;6.36;73.16;102386.78;4956589;28;20117;-72
2021/03/04 00:54:22;;;;;;;105.78;40.88;;;;;;;6.36;73.00;102398.03;4966825;28;20073;-72
2021/03/04 00:56:48;;;;;;;95.70;41.78;;;;;;;6.33;73.44;102399.03;4967375;28;20090;-72
2021/03/04 00:59:14;;;;;;;102.50;40.92;;;;;;;6.39;73.11;102402.22;4961926;28;20062;-74
2021/03/04 01:01:40;;;;;;;94.57;40.78;;;;;;;6.38;73.00;102390.97;4967718;28;20059;-73
2021/03/04 01:04:06;;;;;;;101.00;40.17;;;;;;;6.33;73.37;102390.34;4957625;28;20161;-73
2021/03/04 01:06:33;;;;;;;89.93;37.17;;;;;;;6.33;73.70;102396.44;4945791;28;20136;-73
2021/03/04 01:08:58;;;;;;;86.25;38.38;;;;;;;6.26;73.04;102392.44;4961705;28;20403;-72
2021/03/04 01:11:24;;;;;;;76.75;35.53;;;;;;;6.21;73.14;102383.19;4967748;28;20062;-72
2021/03/04 01:13:50;;;;;;;79.47;34.40;;;;;;;6.22;73.13;102382.28;4966729;28;20062;-72
2021/03/04 01:16:16;;;;;;;81.35;35.40;;;;;;;6.24;73.05;102368.25;4944482;28;20059;-72
2021/03/04 01:18:43;;;;;;;81.30;36.70;;;;;;;6.18;73.08;102357.31;4963369;28;20149;-72
2021/03/04 01:21:09;;;;;;;73.50;31.83;;;;;;;6.28;73.22;102361.09;4958226;28;20110;-72
2021/03/04 01:23:35;;;;;;;76.85;35.58;;;;;;;6.25;73.30;102351.69;4966878;28;20166;-73
2021/03/04 01:26:01;;;;;;;75.03;32.90;;;;;;;6.25;73.35;102350.84;4961954;28;20054;-74
2021/03/04 01:28:28;;;;;;;70.72;32.65;;;;;;;6.29;72.96;102368.00;4950645;28;20090;-73
2021/03/04 01:30:54;;;;;;;78.20;34.65;;;;;;;6.31;73.37;102382.66;4961600;28;20157;-74
2021/03/04 01:33:21;;;;;;;79.57;35.33;;;;;;;6.30;72.88;102380.09;4960090;28;20051;-73
2021/03/04 01:35:47;;;;;;;79.50;35.08;;;;;;;6.25;73.02;102372.53;4966746;28;20088;-72
2021/03/04 01:38:14;;;;;;;77.20;35.92;;;;;;;6.26;72.85;102368.16;4961273;28;20078;-72
2021/03/04 01:40:40;;;;;;;79.65;33.47;;;;;;;6.26;72.65;102366.41;4966905;28;20077;-72
2021/03/04 01:43:06;;;;;;;80.03;36.05;;;;;;;6.23;72.82;102374.34;4930097;28;20055;-72
2021/03/04 01:45:32;;;;;;;78.40;35.50;;;;;;;6.22;73.26;102357.06;4962997;28;20066;-72
2021/03/04 01:48:00;;;;;;;81.32;33.75;;;;;;;6.20;73.63;102343.28;4955987;28;20062;-72
2021/03/04 01:50:29;;;;;;;83.68;36.10;;;;;;;6.23;73.72;102347.47;4950313;28;20061;-72
2021/03/04 01:52:56;;;;;;;75.32;34.38;;;;;;;6.26;73.60;102348.16;4965633;28;20051;-73
2021/03/04 01:55:23;;;;;;;85.50;34.97;;;;;;;6.30;73.44;102338.41;4955608;28;20466;-73
2021/03/04 01:57:51;;;;;;;96.38;38.60;;;;;;;6.29;72.74;102339.31;4961958;28;20150;-73
2021/03/04 02:00:19;;;;;;;81.53;36.75;;;;;;;6.30;73.17;102346.22;4957440;28;20066;-73
2021/03/04 02:02:45;;;;;;;81.07;34.92;;;;;;;6.29;73.20;102337.59;4962076;28;20113;-73
2021/03/04 02:05:17;;;;;;;72.35;33.75;;;;;;;6.26;72.89;102335.13;4956400;28;20117;-73
2021/03/04 02:08:07;;;;;;;73.65;34.45;;;;;;;6.19;73.13;102323.31;4952198;28;20063;-73
2021/03/04 02:10:39;;;;;;;89.60;37.03;;;;;;;6.17;73.10;102319.13;4941613;28;20090;-73
2021/03/04 02:13:16;;;;;;;85.63;37.25;;;;;;;6.19;72.92;102320.72;4943119;28;20171;-73
2021/03/04 02:15:55;;;;;;;85.55;34.95;;;;;;;6.21;73.41;102315.44;4936681;28;20492;-73
2021/03/04 02:18:25;;;;;;;90.38;37.00;;;;;;;6.20;73.71;102319.81;4966187;28;20054;-73
2021/03/04 02:21:27;;;;;;;91.00;36.90;;;;;;;6.12;74.19;102328.03;4942668;28;20058;-72
2021/03/04 02:24:07;;;;;;;91.78;39.00;;;;;;;6.11;74.19;102328.09;4964993;28;20054;-72
2021/03/04 02:27:04;;;;;;;81.45;37.10;;;;;;;6.05;73.86;102337.09;4943763;28;20146;-72
2021/03/04 02:29:37;;;;;;;77.75;34.50;;;;;;;6.03;73.58;102336.31;4962534;28;20141;-72
2021/03/04 02:32:05;;;;;;;72.93;34.55;;;;;;;5.98;74.20;102329.66;4954156;28;20486;-72
2021/03/04 02:34:33;;;;;;;69.90;34.13;;;;;;;5.91;73.57;102329.13;4954201;28;20063;-72
2021/03/04 02:37:00;;;;;;;70.35;31.33;;;;;;;5.92;73.71;102328.22;4964444;28;20054;-72
2021/03/04 02:39:29;;;;;;;68.43;33.50;;;;;;;5.84;73.78;102322.53;4958209;28;20059;-72
2021/03/04 02:41:56;;;;;;;;;;;;;;;5.86;74.56;102310.28;4957002;28;20133;-72
2021/03/04 02:44:23;;;;;;;74.45;31.70;;;;;;;5.90;74.36;102299.63;4948748;28;19972;-72
2021/03/04 02:46:50;;;;;;;74.45;32.72;;;;;;;5.95;73.67;102296.81;4965600;28;20063;-72
2021/03/04 02:49:34;;;;;;;77.60;33.47;;;;;;;5.96;74.29;102288.09;4944679;28;20826;-73
2021/03/04 02:52:01;;;;;;;75.25;32.78;;;;;;;5.98;74.09;102269.75;4964589;28;20063;-73
2021/03/04 02:54:29;;;;;;;75.63;33.38;;;;;;;6.05;73.93;102271.13;4934212;28;20562;-73
2021/03/04 02:56:55;;;;;;;71.97;33.30;;;;;;;6.07;73.47;102266.66;4949926;28;20062;-73
2021/03/04 02:59:21;;;;;;;78.45;33.40;;;;;;;6.05;73.38;102266.75;4965985;28;20058;-73
2021/03/04 03:01:48;;;;;;;69.15;32.25;;;;;;;6.02;73.93;102271.28;4946723;28;20853;-73
2021/03/04 03:04:17;;;;;;;75.35;31.63;;;;;;;6.06;73.28;102267.59;4943081;28;20412;-73
2021/03/04 03:06:44;;;;;;;69.57;31.60;;;;;;;6.05;73.73;102271.97;4954059;28;20137;-73
2021/03/04 03:09:10;;;;;;;70.20;30.15;;;;;;;6.02;73.37;102268.66;4964622;28;20058;-73
2021/03/04 03:11:37;;;;;;;75.25;33.10;;;;;;;5.91;73.46;102266.59;4958365;28;20061;-73
2021/03/04 03:14:03;;;;;;;73.97;31.77;;;;;;;5.87;74.17;102275.50;4946076;28;20138;-73
2021/03/04 03:16:29;;;;;;;69.55;30.30;;;;;;;5.92;73.94;102273.50;4952448;28;20169;-73
2021/03/04 03:18:57;;;;;;;65.80;27.98;;;;;;;5.89;74.07;102266.69;4951816;28;20079;-73
2021/03/04 03:21:30;;;;;;;64.28;27.48;;;;;;;5.93;73.58;102249.97;4962588;28;20097;-73
2021/03/04 03:23:55;;;;;;;60.10;28.75;;;;;;;5.96;73.48;102250.75;4958010;28;20146;-72
2021/03/04 03:26:21;;;;;;;67.05;30.60;;;;;;;5.93;73.24;102251.75;4946147;28;20580;-72
2021/03/04 03:28:47;;;;;;;65.85;29.10;;;;;;;5.99;73.29;102256.66;4958560;28;20890;-72
2021/03/04 03:31:17;;;;;;;74.82;31.90;;;;;;;5.98;73.53;102241.09;4963658;28;20154;-72
2021/03/04 03:33:44;;;;;;;66.70;28.80;;;;;;;6.03;73.32;102246.91;4936077;28;20066;-73
2021/03/04 03:36:10;;;;;;;63.60;28.33;;;;;;;6.04;73.76;102240.81;4964922;28;20105;-73
2021/03/04 03:38:37;;;;;;;63.90;29.13;;;;;;;6.04;73.36;102235.59;4958288;28;20158;-72
2021/03/04 03:41:05;;;;;;;59.85;28.38;;;;;;;6.04;73.37;102240.81;4944480;28;20153;-72
2021/03/04 03:43:34;;;;;;;68.45;30.25;;;;;;;6.04;72.92;102235.59;4958371;28;20067;-72
2021/03/04 03:46:02;;;;;;;70.28;28.83;;;;;;;6.03;73.03;102234.72;4924505;28;20688;-73
2021/03/04 03:48:29;;;;;;;72.50;30.58;;;;;;;5.98;73.39;102236.75;4961493;28;20518;-73
2021/03/04 03:50:57;;;;;;;72.10;30.00;;;;;;;6.01;73.10;102230.53;4941199;28;20069;-72
2021/03/04 03:53:25;;;;;;;69.43;30.83;;;;;;;5.96;73.92;102228.19;4964433;28;20061;-73
2021/03/04 03:55:53;;;;;;;65.40;29.98;;;;;;;5.96;73.07;102232.53;4957646;28;20057;-73
2021/03/04 03:58:25;;;;;;;60.67;28.67;;;;;;;5.91;73.54;102217.97;4953735;28;20130;-73
2021/03/04 04:00:56;;;;;;;57.30;27.27;;;;;;;5.92;73.43;102216.22;4948609;28;20526;-73
2021/03/04 04:03:23;;;;;;;58.53;27.58;;;;;;;5.92;73.11;102211.84;4955123;28;20074;-73
2021/03/04 04:05:51;;;;;;;56.55;26.85;;;;;;;5.85;72.90;102217.47;4957885;28;20059;-73
2021/03/04 04:08:19;;;;;;;60.13;28.70;;;;;;;5.80;72.79;102217.72;4944461;28;20141;-73
2021/03/04 04:10:47;;;;;;;62.35;27.50;;;;;;;5.80;72.80;102212.50;4964625;28;20113;-73
2021/03/04 04:13:18;;;;;;;64.15;28.75;;;;;;;5.80;73.46;102216.84;4942048;28;20047;-73
2021/03/04 04:15:44;;;;;;;64.45;28.55;;;;;;;5.69;73.21;102213.06;4960491;28;20063;-73
2021/03/04 04:18:11;;;;;;;65.90;28.50;;;;;;;5.72;73.86;102225.06;4928257;28;20059;-72
2021/03/04 04:20:48;;;;;;;67.93;28.83;;;;;;;5.63;73.96;102234.22;4937577;28;20153;-72
2021/03/04 04:23:14;;;;;;;71.53;29.02;;;;;;;5.57;74.55;102236.25;4944597;28;20085;-72
2021/03/04 04:25:50;;;;;;;66.75;28.92;;;;;;;5.54;74.09;102222.50;4967846;28;20665;-72
2021/03/04 04:28:17;;;;;;;63.30;28.13;;;;;;;5.54;73.92;102217.28;4951595;28;20134;-72
2021/03/04 04:30:43;;;;;;;64.50;29.80;;;;;;;5.58;74.30;102212.75;4965395;28;20121;-72
2021/03/04 04:33:11;;;;;;;65.97;27.55;;;;;;;5.60;74.27;102213.53;4937957;28;20890;-72
2021/03/04 04:35:37;;;;;;;67.03;29.35;;;;;;;5.62;73.76;102205.66;4948268;28;20067;-73
2021/03/04 04:38:03;;;;;;;74.03;30.20;;;;;;;5.65;74.00;102201.13;4968685;28;20065;-73
2021/03/04 04:40:29;;;;;;;67.25;30.88;;;;;;;5.62;74.42;102213.44;4945268;28;20149;-72
2021/03/04 04:42:55;;;;;;;74.78;31.83;;;;;;;5.58;74.97;102215.38;4953204;28;20090;-72
2021/03/04 04:45:21;;;;;;;74.82;29.67;;;;;;;5.44;75.27;102207.44;4958977;28;20133;-74
2021/03/04 04:47:48;;;;;;;76.30;30.80;;;;;;;5.43;75.32;102201.41;4950333;28;20055;-72
2021/03/04 04:50:14;;;;;;;80.50;34.72;;;;;;;5.45;75.73;102203.91;4967614;28;20537;-73
2021/03/04 04:52:40;;;;;;;78.07;32.97;;;;;;;5.47;76.03;102196.84;4961539;28;20145;-73
2021/03/04 04:55:06;;;;;;;77.30;32.38;;;;;;;5.50;75.83;102205.34;4964516;28;20117;-73
2021/03/04 04:57:32;;;;;;;72.68;29.83;;;;;;;5.47;75.64;102189.91;4964204;28;20090;-73
2021/03/04 04:59:58;;;;;;;72.38;30.83;;;;;;;5.43;75.22;102188.38;4968156;28;20069;-73
2021/03/04 05:02:24;;;;;;;72.90;30.20;;;;;;;5.46;75.78;102195.19;4960606;28;20051;-73
2021/03/04 05:04:51;;;;;;;73.70;30.70;;;;;;;5.46;75.72;102183.00;4967450;28;20059;-73
2021/03/04 05:07:18;;;;;;;87.00;32.25;;;;;;;5.52;75.17;102182.69;4965775;28;20141;-73
2021/03/04 05:09:44;;;;;;;78.15;31.00;;;;;;;5.52;75.40;102180.09;4940404;28;20054;-73
2021/03/04 05:12:10;;;;;;;71.50;30.17;;;;;;;5.53;75.66;102183.56;4965583;28;20066;-73
2021/03/04 05:14:36;;;;;;;69.43;29.08;;;;;;;5.51;74.96;102190.59;4960831;28;20113;-72
2021/03/04 05:17:02;;;;;;;72.40;31.75;;;;;;;5.53;75.37;102184.38;4956791;28;20433;-73
2021/03/04 05:19:29;;;;;;;71.97;30.17;;;;;;;5.52;75.05;102193.09;4957133;28;20113;-74
2021/03/04 05:21:55;;;;;;;68.13;30.80;;;;;;;5.48;74.93;102193.34;4947226;28;20153;-73
2021/03/04 05:24:21;;;;;;;74.07;30.73;;;;;;;5.52;74.67;102200.91;4939154;28;20055;-73
2021/03/04 05:26:47;;;;;;;63.08;29.42;;;;;;;5.48;75.11;102186.38;4944478;29;20570;-73
2021/03/04 05:29:13;;;;;;;67.20;28.55;;;;;;;5.48;75.31;102167.31;4966171;28;20062;-73
2021/03/04 05:31:39;;;;;;;62.75;27.00;;;;;;;5.49;75.36;102163.81;4958922;28;20054;-73
2021/03/04 05:34:05;;;;;;;63.45;28.50;;;;;;;5.53;75.00;102157.53;4964565;28;20418;-74
2021/03/04 05:36:31;;;;;;;64.75;27.35;;;;;;;5.57;74.97;102151.22;4955857;28;20161;-74
2021/03/04 05:38:57;;;;;;;56.05;25.10;;;;;;;5.53;74.54;102141.91;4962674;28;20498;-73
2021/03/04 05:41:24;;;;;;;61.05;26.38;;;;;;;5.63;74.23;102163.91;4961609;28;20055;-74
2021/03/04 05:43:50;;;;;;;59.42;26.13;;;;;;;5.63;73.75;102163.91;4948962;28;20149;-74
2021/03/04 05:46:20;;;;;;;57.67;25.48;;;;;;;5.63;74.05;102182.13;4967300;28;20105;-73
2021/03/04 05:48:49;;;;;;;56.90;25.48;;;;;;;5.61;73.51;102185.75;4956944;28;20063;-74
2021/03/04 05:51:21;;;;;;;54.42;26.17;;;;;;;5.63;73.98;102182.13;4963229;28;20165;-73
2021/03/04 05:53:53;;;;;;;64.53;26.73;;;;;;;5.59;73.17;102175.41;4958577;28;21200;-72
2021/03/04 05:56:20;;;;;;;54.95;26.00;;;;;;;5.54;73.69;102172.19;4969473;28;20082;-73
2021/03/04 05:58:47;;;;;;;55.83;25.30;;;;;;;5.52;73.98;102187.06;4963100;28;20062;-74
2021/03/04 06:01:13;;;;;;;57.58;24.65;;;;;;;5.49;73.71;102175.06;4966356;28;20459;-74
2021/03/04 06:03:40;;;;;;;59.25;26.55;;;;;;;5.51;74.13;102182.78;4956047;28;20062;-73
2021/03/04 06:06:07;;;;;;;59.22;25.77;;;;;;;5.52;74.21;102172.28;4962429;28;20849;-72
2021/03/04 06:08:34;;;;;;;62.35;27.15;;;;;;;5.54;74.82;102167.81;4949104;28;20166;-73
2021/03/04 06:11:02;;;;;;;59.33;27.17;;;;;;;5.56;73.83;102165.16;4960417;28;20173;-72
2021/03/04 06:13:28;;;;;;;69.95;28.10;;;;;;;5.54;74.15;102153.97;4966341;28;20109;-72
2021/03/04 06:15:55;;;;;;;61.20;26.95;;;;;;;5.54;74.03;102152.22;4959107;28;20117;-72
2021/03/04 06:18:22;;;;;;;63.92;28.83;;;;;;;5.48;73.92;102149.94;4961150;28;20143;-72
2021/03/04 06:20:49;;;;;;;60.03;27.10;;;;;;;5.46;74.07;102149.19;4930582;28;20118;-74
2021/03/04 06:23:15;;;;;;;59.70;26.63;;;;;;;5.49;73.90;102156.00;4964546;28;20219;-73
2021/03/04 06:25:44;;;;;;;58.97;25.50;;;;;;;5.49;74.21;102151.63;4960544;28;20058;-73
2021/03/04 06:28:11;;;;;;;61.35;27.52;;;;;;;5.50;73.68;102155.91;4947010;28;20063;-72
2021/03/04 06:30:41;;;;;;;60.97;27.15;;;;;;;5.42;74.07;102149.44;4963114;28;20165;-72
2021/03/04 06:33:10;;;;;;;63.53;26.98;;;;;;;5.45;74.49;102155.31;4938887;28;20518;-73
2021/03/04 06:35:37;;;;;;;;;;;;;;;5.43;74.59;102167.56;4967134;28;20062;-76
2021/03/04 06:38:14;;;;;;;62.92;25.65;;;;;;;5.40;73.92;102172.09;4943257;28;20028;-73
2021/03/04 06:40:40;;;;;;;56.92;26.35;;;;;;;5.31;74.31;102173.38;4957147;28;20068;-74
2021/03/04 06:43:07;;;;;;;63.30;28.20;;;;;;;5.24;74.03;102180.69;4954902;28;20094;-73
2021/03/04 06:45:35;;;;;;;60.80;27.17;;;;;;;5.24;74.59;102177.25;4961987;28;20079;-73
2021/03/04 06:48:18;;;;;;;56.80;25.77;;;;;;;5.19;74.42;102177.47;4957066;28;20076;-73
2021/03/04 06:51:11;;;;;;;59.72;28.08;;;;;;;5.14;75.09;102175.09;4952413;28;20178;-73
2021/03/04 06:53:49;;;;;;;65.47;26.98;;;;;;;5.15;74.70;102170.75;4957823;28;20101;-73
2021/03/04 06:56:14;;;;;;;68.22;27.83;;;;;;;5.17;74.68;102179.31;4951312;28;20192;-74
2021/03/04 06:58:42;;;;;;;59.95;25.95;;;;;;;5.19;74.67;102181.84;4968438;28;20058;-74
2021/03/04 07:01:10;;;;;;;70.50;28.40;;;;;;;5.12;75.55;102183.91;4961374;28;20058;-73
2021/03/04 07:03:41;;;;;;;64.20;26.20;;;;;;;5.13;74.54;102189.00;4964776;28;20051;-73
2021/03/04 07:06:25;;;;;;;62.13;27.73;;;;;;;5.13;75.19;102193.38;4959600;28;20058;-73
2021/03/04 07:08:53;;;;;;;64.68;25.85;;;;;;;5.15;74.90;102197.63;4958734;28;20166;-73
2021/03/04 07:11:24;;;;;;;58.17;25.83;;;;;;;5.18;74.50;102190.56;4952521;28;20102;-75
2021/03/04 07:13:52;;;;;;;63.90;27.13;;;;;;;5.23;75.03;102194.59;4964486;28;20070;-73
2021/03/04 07:16:37;;;;;;;64.63;27.63;;;;;;;5.23;74.56;102202.41;4944946;28;20117;-73
2021/03/04 07:19:09;;;;;;;65.65;26.55;;;;;;;5.28;74.93;102216.03;4962149;28;20085;-73
2021/03/04 07:21:40;;;;;;;66.05;27.13;;;;;;;5.28;74.86;102216.03;4957303;28;20097;-74
2021/03/04 07:24:07;;;;;;;62.75;26.42;;;;;;;5.19;74.52;102216.47;4962946;28;20137;-72
2021/03/04 07:26:36;;;;;;;66.32;27.90;;;;;;;5.23;74.75;102215.41;4954516;28;20122;-72
2021/03/04 07:29:10;;;;;;;61.67;26.73;;;;;;;5.28;75.35;102210.81;4948068;28;20080;-72
2021/03/04 07:31:38;;;;;;;66.43;27.95;;;;;;;5.30;75.44;102208.16;4964668;28;20146;-73
2021/03/04 07:34:09;;;;;;;69.00;28.27;;;;;;;5.28;75.31;102212.59;4929966;28;20053;-72
2021/03/04 07:36:36;;;;;;;62.10;24.90;;;;;;;5.32;74.82;102203.72;4959298;28;20093;-75
2021/03/04 07:39:04;;;;;;;61.55;25.70;;;;;;;5.30;74.47;102201.19;4957038;28;20098;-73
2021/03/04 07:41:43;;;;;;;61.85;25.67;;;;;;;5.35;73.98;102193.13;4960527;28;20051;-71
2021/03/04 07:44:22;;;;;;;58.20;25.48;;;;;;;5.32;73.98;102188.09;4958012;28;20141;-72
2021/03/04 07:47:07;;;;;;;60.33;26.15;;;;;;;5.30;74.03;102193.38;4964054;28;20058;-71
2021/03/04 07:49:45;;;;;;;63.67;24.40;;;;;;;5.13;74.10;102194.22;4949334;28;20599;-72
2021/03/04 07:52:23;;;;;;;54.40;23.58;;;;;;;5.18;73.97;102198.38;4939403;28;20055;-72
2021/03/04 07:54:55;;;;;;;59.85;24.30;;;;;;;5.20;74.54;102186.13;4950973;28;20093;-71
2021/03/04 07:57:23;;;;;;;65.50;25.70;;;;;;;5.27;73.69;102180.53;4964201;28;20153;-73
2021/03/04 07:59:57;;;;;;;55.95;25.20;;;;;;;5.26;74.20;102178.00;4959103;28;20066;-72
2021/03/04 08:02:26;;;;;;;60.80;23.58;;;;;;;5.25;74.27;102184.97;4959482;28;20154;-71
2021/03/04 08:05:16;;;;;;;54.03;21.85;;;;;;;5.26;74.34;102191.00;4952139;28;20352;-71
2021/03/04 08:07:43;;;;;;;55.25;24.10;;;;;;;5.24;73.69;102185.88;4963010;28;20470;-72
2021/03/04 08:10:12;;;;;;;61.63;22.95;;;;;;;5.21;73.77;102182.59;4964693;28;20106;-71
2021/03/04 08:12:57;;;;;;;56.63;22.48;;;;;;;5.22;73.84;102176.50;4957768;28;20059;-71
2021/03/04 08:15:37;;;;;;;56.85;23.92;;;;;;;5.26;73.88;102172.81;4962198;28;20491;-73
2021/03/04 08:18:14;;;;;;;57.80;23.48;;;;;;;5.27;73.81;102172.72;4937256;28;20086;-71
2021/03/04 08:20:41;;;;;;;66.45;23.27;;;;;;;5.32;73.72;102162.91;4964748;28;20137;-72
2021/03/04 08:23:07;;;;;;;59.30;23.30;;;;;;;5.34;73.35;102157.63;4940654;28;20498;-71
2021/03/04 08:25:36;;;;;;;62.25;23.73;;;;;;;5.31;73.38;102160.38;4947332;28;20098;-72
2021/03/04 08:28:04;;;;;;;58.67;22.65;;;;;;;5.35;73.28;102165.38;4958428;28;20097;-72
2021/03/04 08:30:32;;;;;;;61.30;23.20;;;;;;;5.38;73.65;102166.97;4960314;28;20086;-72
2021/03/04 08:33:07;;;;;;;66.32;24.63;;;;;;;5.39;73.96;102171.25;4957659;28;20136;-72
2021/03/04 08:35:35;;;;;;;66.07;24.35;;;;;;;5.41;73.42;102168.56;4954868;28;20098;-72
2021/03/04 08:38:04;;;;;;;60.55;24.10;;;;;;;5.40;73.79;102165.13;4964756;28;20155;-72
2021/03/04 08:40:37;;;;;;;;;;;;;;;5.42;73.91;102167.66;4938301;28;20599;-72
2021/03/04 08:43:18;;;;;;;60.08;23.10;;;;;;;5.44;73.91;102163.19;4952249;28;20024;-72
2021/03/04 08:45:46;;;;;;;62.33;23.08;;;;;;;5.46;73.36;102158.75;4957233;28;20077;-72
2021/03/04 08:48:13;;;;;;;58.75;21.73;;;;;;;5.39;73.71;102137.44;4952625;28;20073;-72
2021/03/04 08:50:45;;;;;;;62.38;24.50;;;;;;;5.44;74.11;102147.59;4940176;28;20152;-72
2021/03/04 08:53:25;;;;;;;59.50;23.63;;;;;;;5.43;74.13;102143.28;4963777;28;20094;-71
2021/03/04 08:55:53;;;;;;;59.35;21.67;;;;;;;5.46;74.32;102136.16;4954001;28;20097;-71
2021/03/04 08:58:21;;;;;;;62.65;24.27;;;;;;;5.41;74.59;102132.97;4967311;28;20158;-71
2021/03/04 09:00:59;;;;;;;64.47;24.85;;;;;;;5.43;74.25;102138.94;4958590;28;20141;-70
2021/03/04 09:03:33;;;;;;;54.58;21.20;;;;;;;5.40;74.26;102143.47;4963619;28;20466;-71
2021/03/04 09:06:17;;;;;;;61.65;23.85;;;;;;;5.41;73.27;102145.13;4963957;28;20050;-71
2021/03/04 09:08:49;;;;;;;59.65;23.02;;;;;;;5.41;73.60;102143.41;4965639;28;20094;-71
2021/03/04 09:11:29;;;;;;;57.70;21.40;;;;;;;5.41;73.65;102139.94;4961706;28;20160;-71
2021/03/04 09:14:09;;;;;;;52.20;19.92;;;;;;;5.41;73.49;102138.19;4961249;28;20066;-71
2021/03/04 09:16:43;;;;;;;55.42;21.58;;;;;;;5.42;73.84;102145.06;4955467;28;20172;-71
2021/03/04 09:19:43;;;;;;;56.17;21.15;;;;;;;5.37;73.53;102131.47;4948539;28;20049;-71
2021/03/04 09:22:10;;;;;;;51.92;21.02;;;;;;;5.38;73.53;102134.91;4967278;28;20430;-71
2021/03/04 09:24:40;;;;;;;51.13;21.08;;;;;;;5.40;73.00;102139.09;4943863;28;20086;-71
2021/03/04 09:27:08;;;;;;;43.63;19.08;;;;;;;5.41;72.64;102134.72;4948665;28;20842;-71
2021/03/04 09:29:39;;;;;;;53.78;21.23;;;;;;;5.40;72.80;102146.06;4957034;28;20511;-71
2021/03/04 09:32:05;;;;;;;51.70;21.02;;;;;;;5.35;73.19;102134.16;4966868;28;20121;-71
2021/03/04 09:34:43;;;;;;;50.85;19.75;;;;;;;5.39;72.95;102142.63;4959345;28;20067;-72
2021/03/04 09:37:25;;;;;;;47.42;19.40;;;;;;;5.46;73.48;102137.94;4950612;28;20062;-73
2021/03/04 09:39:53;;;;;;;48.63;19.35;;;;;;;5.47;72.77;102134.41;4963180;28;20102;-73
2021/03/04 09:42:21;;;;;;;67.97;19.40;;;;;;;5.54;73.19;102138.38;4954005;28;20169;-73
2021/03/04 09:44:56;;;;;;;48.92;20.05;;;;;;;5.54;73.27;102136.59;4962537;28;20150;-73
2021/03/04 09:47:27;;;;;;;56.10;21.27;;;;;;;5.59;72.56;102141.56;4967363;28;20101;-73
2021/03/04 09:49:56;;;;;;;54.78;20.58;;;;;;;5.61;72.39;102139.72;4967469;28;20055;-73
2021/03/04 09:52:24;;;;;;;52.75;21.40;;;;;;;5.69;72.47;102141.94;4954794;28;20058;-73
2021/03/04 09:55:15;;;;;;;52.47;21.60;;;;;;;5.73;72.57;102138.22;4967326;28;20165;-73
2021/03/04 09:57:47;;;;;;;51.17;20.13;;;;;;;5.79;72.91;102142.28;4961591;28;20062;-72
2021/03/04 10:00:16;;;;;;;60.20;20.83;;;;;;;5.79;72.61;102137.91;4966948;28;20114;-72
2021/03/04 10:02:45;;;;;;;49.17;18.60;;;;;;;5.78;72.00;102135.38;4960420;28;20153;-72
2021/03/04 10:05:14;;;;;;;48.22;18.58;;;;;;;5.80;72.38;102139.59;4967207;28;20060;-72
2021/03/04 10:07:40;;;;;;;49.83;18.52;;;;;;;5.68;72.56;102132.41;4960830;28;20157;-73
2021/03/04 10:10:18;;;;;;;47.70;19.30;;;;;;;5.69;72.46;102132.34;4963226;28;20070;-73
2021/03/04 10:12:56;;;;;;;51.83;19.65;;;;;;;5.75;72.86;102136.38;4956135;28;20051;-73
2021/03/04 10:15:28;;;;;;;41.47;15.77;;;;;;;5.70;72.85;102139.25;4955222;28;20596;-73
2021/03/04 10:17:57;;;;;;;36.15;15.85;;;;;;;5.65;72.12;102130.00;4947675;28;20066;-73
2021/03/04 10:20:24;;;;;;;34.90;15.02;;;;;;;5.70;72.18;102141.00;4955110;28;20059;-73
2021/03/04 10:22:51;;;;;;;32.75;14.73;;;;;;;5.69;71.58;102140.16;4962442;28;20482;-73
2021/03/04 10:25:18;;;;;;;31.27;14.32;;;;;;;5.69;71.80;102139.31;4956644;28;20132;-73
2021/03/04 10:27:44;;;;;;;36.17;15.43;;;;;;;5.69;71.46;102131.50;4965684;28;20094;-72
2021/03/04 10:30:12;;;;;;;34.88;15.38;;;;;;;5.76;71.40;102140.66;4961005;28;20095;-71
2021/03/04 10:32:39;;;;;;;39.50;15.90;;;;;;;5.78;71.16;102140.56;4964976;28;20062;-72
2021/03/04 10:35:13;;;;;;;35.63;15.05;;;;;;;5.82;70.93;102142.94;4959685;28;20328;-72
2021/03/04 10:37:40;;;;;;;37.47;15.85;;;;;;;5.84;71.76;102142.84;4959269;28;20110;-71
2021/03/04 10:40:07;;;;;;;37.45;15.40;;;;;;;5.88;71.44;102140.00;4947029;28;20543;-72
2021/03/04 10:42:34;;;;;;;37.08;15.40;;;;;;;5.87;71.49;102137.50;4948226;28;20165;-71
2021/03/04 10:45:02;;;;;;;36.45;15.25;;;;;;;5.90;71.01;102139.91;4945397;28;20487;-72
2021/03/04 10:47:28;;;;;;;42.70;16.02;;;;;;;5.87;71.14;102132.28;4948039;28;20058;-72
2021/03/04 10:49:56;;;;;;;36.92;14.65;;;;;;;5.83;70.19;102136.81;4964896;28;20126;-72
2021/03/04 10:52:24;;;;;;;36.78;14.23;;;;;;;5.83;71.01;102135.97;4953504;28;20094;-71
2021/03/04 10:54:51;;;;;;;33.50;14.53;;;;;;;5.89;70.70;102139.06;4965624;28;20136;-71
2021/03/04 10:57:20;;;;;;;29.98;12.82;;;;;;;5.88;71.21;102129.59;4948977;28;20058;-71
2021/03/04 10:59:46;;;;;;;30.70;13.32;;;;;;;5.93;70.83;102132.78;4966097;28;20327;-71
2021/03/04 11:02:12;;;;;;;28.20;12.05;;;;;;;5.90;70.20;102132.97;4963026;28;20090;-72
2021/03/04 11:04:39;;;;;;;30.40;13.23;;;;;;;5.94;70.27;102131.03;4944795;28;20070;-72
2021/03/04 11:07:05;;;;;;;24.75;12.10;;;;;;;5.98;69.93;102139.53;4965016;28;20058;-73
2021/03/04 11:09:31;;;;;;;28.95;12.63;;;;;;;5.90;69.88;102132.09;4945660;28;20097;-72
2021/03/04 11:12:00;;;;;;;28.20;12.27;;;;;;;5.82;70.18;102144.69;4963231;28;20141;-72
2021/03/04 11:14:26;;;;;;;24.38;11.63;;;;;;;5.85;70.35;102142.78;4959647;28;20090;-72
2021/03/04 11:16:52;;;;;;;26.20;11.88;;;;;;;5.88;70.52;102147.81;4952119;28;20058;-72
2021/03/04 11:19:19;;;;;;;25.85;12.52;;;;;;;5.91;70.31;102145.03;4938502;28;20476;-72
2021/03/04 11:21:46;;;;;;;23.73;10.93;;;;;;;5.98;70.21;102145.59;4964690;28;20082;-72
2021/03/04 11:24:13;;;;;;;24.85;11.18;;;;;;;5.98;70.11;102144.72;4952357;28;20059;-72
2021/03/04 11:26:40;;;;;;;25.05;11.13;;;;;;;5.94;70.47;102147.50;4945875;28;20085;-71